Kezdőlap
METAR-TAF:

METAR-TAF

Repülőterek :

Seremetyjevói nemzetközi repülőtér

Moszkva-Seremetyjevói, Oroszország

földrajzi szélesség: 55-58N, földrajzi hosszúság: 037-25E, magasság: 190 m

Jelenlegi meteorológiai megfigyelések

A jelentés 31 perccel ezelõtt készült, 14:00 UTC
Kelet-északkeleti szél 14 kt
Hőmérséklet 29°C
Páratartalom 48%
Légköri nyomás 1008 hPa
Látótávolság 10 km, vagy több
felhőtlen 1500 m magasságban, és nincs gomolyfelhõ

METAR: UUEE 161400Z 07007MPS CAVOK 29/17 Q1008 R06C/CLRD62 R06R/CLRD62 NOSIG

Idő: 17:31 (14:31 UTC)

Előrejelzés

A jelentés 3 órával és 31 perccel ezelõtt készült, 11:00 UTC
Az előrejelzés 16-én 12 óra UTC és 17-én 12 óra UTC között érvényes
Északkeleti szél 12 kt
Látótávolság 10 km, vagy több
Szakadozott felhőzet 2500 lábon

TAF: UUEE 161100Z 1612/1712 05006MPS 9999 BKN025 TX29/1613Z TN20/1702Z

Meteorológiai megfigyelések és előrejelzések több, mint 4000 repülőtéren (METAR és TAF jelentéseket).

A térképen piros és sárga pontok jelzik az elérhető meteorológiai állomásokat.

Mozgassa az egeret a pont fölött, hogy megjelenjen az állomás neve.

Azután kattintson az időjárási megfigyelések és előrejelzések megtekintéséhez.

A térkép megváltoztatása: kattintson a fekete keresztel jelölt zöld gombra ráközelítéshez, a vonallal jelölt zöld gombra távolításhoz, vagy a zöld nyilakra a szomszédos térképek eléréséhez.


METAR-TAF: